createdAt,value
2018-08-25T00:00:04.064Z,91.21
2018-08-25T00:02:33.168Z,91.41
2018-08-25T00:05:02.360Z,91.25
2018-08-25T00:07:31.468Z,91.14
2018-08-25T00:10:00.674Z,91.38
2018-08-25T00:12:29.907Z,91.42
2018-08-25T00:14:59.034Z,91.83
2018-08-25T00:17:28.105Z,90.82
2018-08-25T00:19:57.268Z,90.31
2018-08-25T00:22:26.734Z,90.48
2018-08-25T00:24:55.852Z,88.95
2018-08-25T00:27:25.031Z,88.97
2018-08-25T00:29:54.225Z,88.38
2018-08-25T00:32:23.313Z,89.07
2018-08-25T00:34:52.441Z,88.13
2018-08-25T00:37:21.658Z,88.07
2018-08-25T00:39:50.845Z,88.05
2018-08-25T00:42:20.028Z,88.11
2018-08-25T00:44:49.147Z,87.43
2018-08-25T00:47:18.238Z,87.57
2018-08-25T00:49:47.394Z,87.84
2018-08-25T00:52:16.656Z,87.41
2018-08-25T00:54:45.960Z,88.39
2018-08-25T00:57:15.065Z,87.34
2018-08-25T00:59:44.236Z,87.53
2018-08-25T01:02:13.404Z,86.77
2018-08-25T01:04:42.617Z,87.00
2018-08-25T01:07:11.820Z,86.99
2018-08-25T01:09:40.939Z,86.91
2018-08-25T01:12:10.109Z,87.93
2018-08-25T01:14:39.221Z,88.24
2018-08-25T01:17:08.385Z,87.80
2018-08-25T01:19:37.501Z,88.22
2018-08-25T01:22:06.853Z,88.81
2018-08-25T01:24:35.973Z,88.57
2018-08-25T01:27:05.291Z,87.79
2018-08-25T01:29:34.468Z,88.97
2018-08-25T01:32:03.604Z,89.04
2018-08-25T01:34:32.705Z,88.99
2018-08-25T01:37:01.810Z,89.11
2018-08-25T01:39:31.060Z,89.15
2018-08-25T01:42:00.248Z,89.53
2018-08-25T01:44:29.376Z,89.66
2018-08-25T01:46:58.469Z,90.22
2018-08-25T01:49:27.647Z,90.00
2018-08-25T01:51:56.853Z,90.02
2018-08-25T01:54:26.025Z,89.57
2018-08-25T01:56:55.134Z,89.83
2018-08-25T01:59:24.231Z,90.36
2018-08-25T02:01:53.442Z,89.89
2018-08-25T02:04:22.549Z,90.48
2018-08-25T02:06:51.637Z,90.20
2018-08-25T02:09:20.733Z,89.61
2018-08-25T02:11:49.897Z,89.93
2018-08-25T02:14:19.124Z,89.74
2018-08-25T02:16:48.413Z,89.10
2018-08-25T02:19:17.493Z,88.76
2018-08-25T02:21:46.632Z,88.33
2018-08-25T02:24:15.784Z,87.98
2018-08-25T02:26:44.896Z,87.76
2018-08-25T02:29:14.145Z,87.51
2018-08-25T02:31:43.290Z,87.23
2018-08-25T02:34:12.578Z,87.55
2018-08-25T02:36:41.697Z,88.46
2018-08-25T02:39:12.677Z,88.81
2018-08-25T02:41:42.587Z,88.83
2018-08-25T02:44:11.673Z,88.90
2018-08-25T02:46:40.790Z,89.36
2018-08-25T02:49:09.933Z,89.14
2018-08-25T02:51:39.036Z,89.33
2018-08-25T02:54:08.265Z,89.48
2018-08-25T02:56:37.432Z,89.49
2018-08-25T02:59:06.540Z,89.21
2018-08-25T03:01:35.625Z,90.29
2018-08-25T03:04:04.812Z,90.10
2018-08-25T03:06:33.912Z,89.96
2018-08-25T03:09:03.360Z,90.22
2018-08-25T03:11:32.505Z,90.55
2018-08-25T03:14:01.685Z,90.84
2018-08-25T03:16:30.796Z,90.46
2018-08-25T03:18:59.992Z,89.58
2018-08-25T03:21:29.195Z,90.47
2018-08-25T03:23:58.294Z,90.40
2018-08-25T03:26:27.558Z,89.93
2018-08-25T03:28:56.643Z,89.84
2018-08-25T03:31:25.744Z,90.31
2018-08-25T03:33:54.860Z,90.62
2018-08-25T03:36:23.946Z,90.58
2018-08-25T03:38:53.029Z,91.15
2018-08-25T03:41:22.163Z,90.77
2018-08-25T03:43:51.335Z,90.50
2018-08-25T03:46:20.428Z,90.22
2018-08-25T03:48:49.653Z,88.53
2018-08-25T03:51:18.745Z,88.43
2018-08-25T03:53:47.933Z,87.94
2018-08-25T03:56:17.148Z,88.51
2018-08-25T03:58:46.254Z,88.69
2018-08-25T04:01:15.341Z,89.01
2018-08-25T04:03:44.499Z,89.88
2018-08-25T04:06:13.624Z,89.76
2018-08-25T04:08:42.801Z,89.16
2018-08-25T04:11:11.912Z,89.42
2018-08-25T04:13:41.089Z,89.60
2018-08-25T04:16:10.189Z,89.83
2018-08-25T04:18:39.424Z,90.22
2018-08-25T04:21:08.521Z,90.05
2018-08-25T04:23:37.608Z,90.23
2018-08-25T04:26:06.832Z,90.40
2018-08-25T04:28:35.972Z,90.28
2018-08-25T04:31:05.073Z,90.25
2018-08-25T04:33:34.431Z,90.46
2018-08-25T04:36:03.492Z,90.33
2018-08-25T04:38:39.441Z,90.16
2018-08-25T04:41:08.553Z,90.37
2018-08-25T04:43:37.712Z,89.80
2018-08-25T04:46:07.181Z,90.35
2018-08-25T04:48:36.317Z,89.99
2018-08-25T04:51:05.513Z,90.27
2018-08-25T04:53:34.621Z,89.96
2018-08-25T04:56:03.803Z,90.94
2018-08-25T04:58:32.901Z,90.78
2018-08-25T05:01:02.001Z,90.79
2018-08-25T05:03:31.097Z,90.74
2018-08-25T05:06:00.219Z,90.53
2018-08-25T05:08:29.384Z,90.22
2018-08-25T05:10:58.620Z,90.56
2018-08-25T05:13:27.709Z,90.21
2018-08-25T05:15:56.816Z,90.04
2018-08-25T05:18:25.979Z,89.82
2018-08-25T05:20:55.082Z,90.00
2018-08-25T05:23:24.202Z,89.03
2018-08-25T05:25:53.546Z,89.18
2018-08-25T05:28:22.644Z,88.92
2018-08-25T05:30:51.763Z,88.42
2018-08-25T05:33:20.948Z,87.79
2018-08-25T05:35:50.057Z,88.44
2018-08-25T05:38:19.148Z,88.10
2018-08-25T05:40:48.249Z,88.54
2018-08-25T05:43:17.417Z,88.37
2018-08-25T05:45:46.537Z,88.45
2018-08-25T05:48:15.725Z,87.57
2018-08-25T05:50:44.910Z,87.69
2018-08-25T05:53:14.043Z,88.64
2018-08-25T05:55:43.161Z,88.22
2018-08-25T05:58:12.320Z,89.02
2018-08-25T06:00:41.535Z,88.13
2018-08-25T06:03:10.746Z,87.63
2018-08-25T06:05:39.799Z,87.24
2018-08-25T06:08:08.922Z,87.31
2018-08-25T06:10:38.013Z,87.49
2018-08-25T06:13:07.180Z,86.84
2018-08-25T06:15:36.297Z,86.85
2018-08-25T06:18:05.373Z,87.32
2018-08-25T06:20:34.665Z,86.71
2018-08-25T06:23:03.762Z,85.55
2018-08-25T06:25:32.889Z,86.02
2018-08-25T06:28:02.056Z,85.06
2018-08-25T06:30:31.196Z,85.49
2018-08-25T06:33:00.353Z,85.00
2018-08-25T06:35:29.470Z,84.83
2018-08-25T06:37:58.654Z,85.22
2018-08-25T06:40:27.756Z,84.17
2018-08-25T06:42:56.878Z,84.53
2018-08-25T06:45:25.984Z,84.05
2018-08-25T06:47:55.900Z,84.82
2018-08-25T06:50:24.979Z,84.73
2018-08-25T06:52:54.068Z,84.90
2018-08-25T06:55:23.228Z,83.63
2018-08-25T06:57:52.340Z,84.43
2018-08-25T07:00:21.551Z,83.47
2018-08-25T07:02:50.735Z,83.12
2018-08-25T07:05:19.979Z,83.54
2018-08-25T07:07:49.781Z,83.57
2018-08-25T07:10:18.965Z,84.01
2018-08-25T07:12:48.131Z,83.94
2018-08-25T07:15:17.255Z,83.36
2018-08-25T07:17:46.429Z,83.44
2018-08-25T07:20:15.557Z,83.78
2018-08-25T07:22:44.743Z,83.39
2018-08-25T07:25:13.875Z,82.97
2018-08-25T07:27:43.023Z,83.66
2018-08-25T07:30:12.133Z,82.70
2018-08-25T07:32:41.226Z,83.22
2018-08-25T07:35:10.434Z,81.39
2018-08-25T07:37:39.609Z,81.35
2018-08-25T07:40:08.705Z,81.03
2018-08-25T07:42:37.827Z,80.13
2018-08-25T07:45:07.167Z,78.29
2018-08-25T07:47:36.287Z,78.69
2018-08-25T07:50:05.989Z,78.30
2018-08-25T07:52:35.116Z,78.16
2018-08-25T07:55:04.225Z,78.53
2018-08-25T07:57:33.400Z,77.48
2018-08-25T08:00:02.617Z,78.04
2018-08-25T08:02:31.778Z,76.82
2018-08-25T08:05:00.972Z,74.02
2018-08-25T08:07:30.078Z,75.47
2018-08-25T08:09:59.168Z,70.66
2018-08-25T08:12:28.333Z,72.11
2018-08-25T08:14:57.688Z,71.46
2018-08-25T08:17:26.856Z,72.20
2018-08-25T08:19:55.997Z,70.26
2018-08-25T08:22:25.239Z,70.55
2018-08-25T08:24:54.340Z,71.21
2018-08-25T08:27:23.411Z,71.31
2018-08-25T08:29:52.545Z,72.13
2018-08-25T08:32:21.643Z,72.21
2018-08-25T08:34:50.721Z,73.04
2018-08-25T08:37:19.853Z,74.07
2018-08-25T08:39:49.081Z,73.72
2018-08-25T08:42:18.212Z,73.32
2018-08-25T08:44:47.324Z,74.98
2018-08-25T08:47:16.424Z,75.56
2018-08-25T08:49:46.908Z,74.42
2018-08-25T08:52:14.620Z,72.89
2018-08-25T08:54:43.696Z,73.33
2018-08-25T08:57:12.784Z,72.84
2018-08-25T08:59:42.562Z,72.05
2018-08-25T09:02:11.641Z,71.21
2018-08-25T09:04:40.716Z,71.84
2018-08-25T09:07:09.897Z,70.32
2018-08-25T09:09:39.079Z,67.91
2018-08-25T09:12:08.180Z,69.50
2018-08-25T09:14:37.340Z,69.62
2018-08-25T09:17:06.788Z,67.51
2018-08-25T09:19:35.901Z,68.12
2018-08-25T09:22:05.080Z,68.37
2018-08-25T09:24:34.264Z,66.31
2018-08-25T09:27:03.365Z,64.78
2018-08-25T09:29:32.572Z,65.46
2018-08-25T09:32:01.824Z,66.59
2018-08-25T09:34:30.946Z,62.57
2018-08-25T09:37:00.214Z,63.21
2018-08-25T09:39:29.255Z,62.57
2018-08-25T09:41:58.346Z,62.07
2018-08-25T09:44:27.562Z,62.34
2018-08-25T09:46:56.662Z,60.20
2018-08-25T09:49:25.756Z,59.94
2018-08-25T09:51:54.943Z,60.22
2018-08-25T09:54:24.070Z,59.16
2018-08-25T09:56:53.174Z,59.03
2018-08-25T09:59:22.411Z,59.00
2018-08-25T10:01:56.759Z,58.01
2018-08-25T10:04:26.046Z,56.68
2018-08-25T10:06:55.252Z,58.34
2018-08-25T10:09:24.694Z,58.94
2018-08-25T10:11:54.062Z,59.28
2018-08-25T10:14:23.242Z,57.60
2018-08-25T10:16:53.002Z,56.99
2018-08-25T10:19:22.072Z,57.93
2018-08-25T10:21:51.144Z,59.06
2018-08-25T10:24:20.334Z,57.26
2018-08-25T10:26:49.444Z,57.32
2018-08-25T10:29:18.544Z,58.23
2018-08-25T10:31:47.676Z,58.78
2018-08-25T10:34:16.867Z,57.76
2018-08-25T10:36:45.955Z,58.59
2018-08-25T10:39:15.110Z,57.49
2018-08-25T10:41:44.356Z,58.04
2018-08-25T10:44:13.384Z,56.14
2018-08-25T10:46:42.527Z,58.25
2018-08-25T10:49:12.101Z,58.37
2018-08-25T10:51:41.237Z,57.38
2018-08-25T10:54:10.441Z,58.80
2018-08-25T10:56:39.537Z,58.72
2018-08-25T10:59:08.692Z,58.79
2018-08-25T11:01:37.871Z,59.70
2018-08-25T11:04:07.016Z,58.67
2018-08-25T11:06:36.177Z,58.33
2018-08-25T11:09:12.909Z,58.88
2018-08-25T11:11:42.051Z,59.10
2018-08-25T11:14:11.505Z,59.97
2018-08-25T11:16:40.607Z,59.54
2018-08-25T11:19:09.753Z,60.39
2018-08-25T11:21:38.933Z,59.29
2018-08-25T11:24:08.061Z,60.16
2018-08-25T11:26:37.239Z,59.42
2018-08-25T11:29:06.589Z,58.96
2018-08-25T11:31:35.649Z,59.09
2018-08-25T11:34:04.837Z,59.60
2018-08-25T11:36:33.917Z,59.85
2018-08-25T11:39:03.248Z,60.28
2018-08-25T11:41:32.421Z,60.08
2018-08-25T11:44:01.576Z,59.54
2018-08-25T11:46:30.632Z,58.89
2018-08-25T11:48:59.719Z,59.81
2018-08-25T11:51:28.801Z,59.65
2018-08-25T11:53:57.967Z,58.80
2018-08-25T11:56:27.244Z,58.35
2018-08-25T11:58:56.338Z,57.83
2018-08-25T12:01:25.436Z,59.00
2018-08-25T12:03:54.512Z,57.59
2018-08-25T12:06:23.616Z,57.74
2018-08-25T12:08:53.211Z,58.11
2018-08-25T12:11:22.404Z,59.02
2018-08-25T12:13:51.572Z,59.23
2018-08-25T12:16:20.742Z,59.68
2018-08-25T12:18:49.888Z,60.00
2018-08-25T12:21:18.974Z,61.34
2018-08-25T12:23:48.184Z,63.44
2018-08-25T12:26:17.352Z,63.88
2018-08-25T12:28:46.455Z,64.58
2018-08-25T12:31:15.564Z,67.40
2018-08-25T12:33:44.668Z,66.96
2018-08-25T12:36:13.749Z,67.64
2018-08-25T12:38:42.853Z,69.48
2018-08-25T12:41:11.942Z,69.33
2018-08-25T12:43:41.041Z,69.72
2018-08-25T12:46:10.165Z,70.78
2018-08-25T12:48:39.394Z,71.49
2018-08-25T12:51:08.533Z,73.26
2018-08-25T12:53:37.616Z,73.78
2018-08-25T12:56:06.713Z,73.78
2018-08-25T12:58:35.903Z,73.05
2018-08-25T13:01:05.067Z,72.50
2018-08-25T13:03:34.441Z,72.81
2018-08-25T13:06:03.715Z,76.10
2018-08-25T13:08:32.829Z,76.37
2018-08-25T13:11:02.192Z,77.02
2018-08-25T13:13:31.311Z,78.83
2018-08-25T13:16:00.405Z,79.12
2018-08-25T13:18:29.501Z,78.87
2018-08-25T13:20:58.580Z,77.95
2018-08-25T13:23:27.820Z,79.21
2018-08-25T13:25:56.880Z,80.65
2018-08-25T13:28:25.972Z,79.50
2018-08-25T13:30:55.228Z,79.84
2018-08-25T13:33:24.376Z,81.35
2018-08-25T13:35:53.491Z,79.42
2018-08-25T13:38:22.827Z,81.37
2018-08-25T13:40:51.973Z,83.99
2018-08-25T13:43:21.058Z,85.02
2018-08-25T13:45:50.164Z,85.96
2018-08-25T13:48:19.245Z,89.09
2018-08-25T13:50:48.342Z,89.49
2018-08-25T13:53:17.549Z,91.60
2018-08-25T13:55:46.669Z,89.45
2018-08-25T13:58:15.854Z,91.13
2018-08-25T14:00:45.041Z,90.07
2018-08-25T14:03:14.481Z,91.57
2018-08-25T14:05:43.584Z,91.89
2018-08-25T14:08:12.791Z,90.79
2018-08-25T14:10:41.925Z,91.21
2018-08-25T14:13:11.021Z,91.36
2018-08-25T14:15:40.281Z,91.70
2018-08-25T14:18:09.431Z,90.58
2018-08-25T14:20:38.631Z,89.90
2018-08-25T14:23:07.729Z,91.24
2018-08-25T14:25:36.925Z,92.93
2018-08-25T14:28:06.129Z,92.26
2018-08-25T14:30:35.321Z,91.28
2018-08-25T14:33:04.499Z,90.68
2018-08-25T14:35:33.595Z,91.04
2018-08-25T14:38:02.803Z,93.29
2018-08-25T14:40:31.905Z,92.80
2018-08-25T14:43:01.002Z,94.67
2018-08-25T14:45:30.140Z,94.15
2018-08-25T14:47:59.232Z,95.08
2018-08-25T14:50:28.445Z,94.38
2018-08-25T14:52:57.584Z,94.14
2018-08-25T14:55:26.690Z,92.42
2018-08-25T14:57:55.854Z,92.93
2018-08-25T15:00:25.002Z,93.64
2018-08-25T15:02:54.060Z,93.64
2018-08-25T15:05:23.148Z,93.44
2018-08-25T15:07:52.487Z,94.20
2018-08-25T15:10:21.636Z,93.06
2018-08-25T15:12:50.784Z,94.52
2018-08-25T15:15:20.710Z,92.70
2018-08-25T15:17:49.937Z,93.00
2018-08-25T15:20:19.040Z,92.06
2018-08-25T15:22:48.182Z,91.52
2018-08-25T15:25:17.332Z,90.10
2018-08-25T15:27:46.451Z,92.02
2018-08-25T15:30:15.622Z,92.98
2018-08-25T15:32:44.699Z,92.37
2018-08-25T15:35:13.819Z,92.79
2018-08-25T15:37:42.924Z,91.86
2018-08-25T15:40:12.043Z,91.94
2018-08-25T15:42:41.253Z,93.45
2018-08-25T15:45:10.425Z,94.34
2018-08-25T15:47:39.532Z,93.28
2018-08-25T15:50:08.633Z,93.56
2018-08-25T15:52:37.738Z,92.47
2018-08-25T15:55:07.114Z,93.69
2018-08-25T15:57:36.213Z,93.27
2018-08-25T16:00:05.747Z,93.88
2018-08-25T16:02:35.048Z,94.68
2018-08-25T16:05:04.229Z,93.93
2018-08-25T16:07:33.356Z,93.94
2018-08-25T16:10:02.445Z,95.46
2018-08-25T16:12:31.717Z,93.83
2018-08-25T16:15:00.792Z,95.08
2018-08-25T16:17:30.236Z,94.17
2018-08-25T16:19:59.579Z,94.63
2018-08-25T16:22:28.948Z,94.92
2018-08-25T16:24:58.436Z,95.32
2018-08-25T16:27:27.878Z,95.11
2018-08-25T16:29:57.044Z,95.76
2018-08-25T16:32:26.228Z,96.13
2018-08-25T16:34:55.314Z,95.85
2018-08-25T16:37:24.420Z,94.51
2018-08-25T16:39:53.518Z,95.82
2018-08-25T16:42:22.664Z,96.24
2018-08-25T16:44:51.852Z,95.71
2018-08-25T16:47:20.932Z,95.67
2018-08-25T16:49:50.060Z,96.26
2018-08-25T16:52:19.241Z,96.70
2018-08-25T16:54:48.349Z,96.67
2018-08-25T16:57:17.636Z,97.28
2018-08-25T16:59:46.726Z,97.67
2018-08-25T17:02:15.874Z,97.76
2018-08-25T17:04:45.029Z,97.83
2018-08-25T17:07:14.253Z,98.35
2018-08-25T17:09:43.401Z,98.82
2018-08-25T17:12:12.527Z,99.20
2018-08-25T17:14:41.625Z,99.05
2018-08-25T17:17:10.721Z,98.55
2018-08-25T17:19:40.065Z,98.89
2018-08-25T17:22:09.164Z,98.18
2018-08-25T17:24:38.300Z,98.57
2018-08-25T17:27:07.648Z,97.95
2018-08-25T17:29:36.849Z,97.67
2018-08-25T17:32:06.033Z,98.20
2018-08-25T17:34:35.104Z,98.62
2018-08-25T17:37:04.219Z,99.41
2018-08-25T17:39:33.396Z,100.00
2018-08-25T17:42:02.584Z,100.00
2018-08-25T17:44:31.882Z,100.00
2018-08-25T17:47:00.981Z,100.00
2018-08-25T17:49:30.916Z,100.00
2018-08-25T17:52:00.016Z,100.00
2018-08-25T17:54:29.180Z,100.00
2018-08-25T17:56:58.369Z,100.00
2018-08-25T17:59:27.417Z,100.00
2018-08-25T18:01:56.529Z,100.00
2018-08-25T18:04:25.624Z,100.00
2018-08-25T18:06:54.879Z,99.42
2018-08-25T18:09:23.960Z,99.86
2018-08-25T18:11:53.069Z,99.49
2018-08-25T18:14:22.350Z,99.87
2018-08-25T18:16:51.458Z,99.69
2018-08-25T18:19:20.658Z,99.90
2018-08-25T18:21:49.777Z,100.00
2018-08-25T18:24:19.271Z,99.96
2018-08-25T18:26:48.345Z,100.00
2018-08-25T18:29:17.461Z,100.00
2018-08-25T18:31:46.545Z,100.00
2018-08-25T18:34:16.024Z,100.00
2018-08-25T18:36:45.147Z,100.00
2018-08-25T18:39:14.797Z,100.00
2018-08-25T18:41:44.621Z,100.00
2018-08-25T18:44:14.521Z,100.00
2018-08-25T18:46:43.717Z,100.00
2018-08-25T18:49:12.869Z,100.00
2018-08-25T18:51:42.025Z,100.00
2018-08-25T18:54:11.173Z,100.00
2018-08-25T18:56:40.267Z,100.00
2018-08-25T18:59:09.373Z,99.82
2018-08-25T19:01:38.551Z,99.41
2018-08-25T19:04:07.675Z,100.00
2018-08-25T19:06:36.934Z,99.31
2018-08-25T19:09:07.497Z,99.53
2018-08-25T19:11:36.597Z,99.58
2018-08-25T19:14:05.757Z,100.00
2018-08-25T19:16:34.859Z,99.60
2018-08-25T19:19:03.954Z,98.99
2018-08-25T19:21:33.055Z,99.94
2018-08-25T19:24:02.391Z,99.52
2018-08-25T19:26:31.668Z,98.29
2018-08-25T19:29:00.875Z,98.25
2018-08-25T19:31:30.061Z,98.99
2018-08-25T19:33:59.304Z,98.46
2018-08-25T19:36:28.801Z,99.87
2018-08-25T19:38:57.937Z,99.73
2018-08-25T19:41:27.088Z,98.87
2018-08-25T19:43:56.242Z,99.99
2018-08-25T19:46:25.434Z,100.00
2018-08-25T19:48:54.531Z,99.34
2018-08-25T19:51:23.627Z,99.46
2018-08-25T19:53:52.732Z,99.08
2018-08-25T19:56:21.929Z,99.03
2018-08-25T19:58:51.305Z,99.44
2018-08-25T20:01:20.450Z,100.00
2018-08-25T20:03:49.552Z,100.00
2018-08-25T20:06:18.800Z,100.00
2018-08-25T20:08:47.918Z,100.00
2018-08-25T20:11:17.005Z,100.00
2018-08-25T20:13:46.132Z,100.00
2018-08-25T20:16:15.305Z,97.81
2018-08-25T20:18:44.401Z,99.80
2018-08-25T20:21:13.541Z,100.00
2018-08-25T20:23:42.617Z,100.00
2018-08-25T20:26:11.725Z,100.00
2018-08-25T20:28:40.965Z,100.00
2018-08-25T20:31:10.040Z,100.00
2018-08-25T20:33:39.157Z,100.00
2018-08-25T20:36:08.415Z,100.00
2018-08-25T20:38:37.577Z,100.00
2018-08-25T20:41:06.777Z,100.00
2018-08-25T20:43:35.965Z,100.00
2018-08-25T20:46:05.319Z,100.00
2018-08-25T20:48:34.340Z,100.00
2018-08-25T20:51:03.493Z,100.00
2018-08-25T20:53:32.576Z,100.00
2018-08-25T20:56:01.709Z,100.00
2018-08-25T20:58:30.801Z,100.00
2018-08-25T21:01:00.044Z,100.00
2018-08-25T21:03:28.997Z,100.00
2018-08-25T21:05:58.140Z,100.00
2018-08-25T21:08:27.238Z,100.00
2018-08-25T21:10:56.415Z,100.00
2018-08-25T21:13:25.535Z,100.00
2018-08-25T21:15:54.637Z,100.00
2018-08-25T21:18:23.721Z,100.00
2018-08-25T21:20:52.900Z,100.00
2018-08-25T21:23:22.091Z,100.00
2018-08-25T21:25:51.235Z,100.00
2018-08-25T21:28:20.400Z,100.00
2018-08-25T21:30:49.646Z,100.00
2018-08-25T21:33:18.785Z,98.14
2018-08-25T21:35:48.004Z,100.00
2018-08-25T21:38:17.093Z,100.00
2018-08-25T21:40:46.209Z,99.54
2018-08-25T21:43:15.385Z,100.00
2018-08-25T21:45:44.513Z,100.00
2018-08-25T21:48:13.681Z,100.00
2018-08-25T21:50:42.870Z,100.00
2018-08-25T21:53:11.997Z,100.00
2018-08-25T21:55:41.101Z,100.00
2018-08-25T21:58:10.180Z,100.00
2018-08-25T22:00:45.411Z,100.00
2018-08-25T22:03:14.655Z,100.00
2018-08-25T22:05:43.804Z,100.00
2018-08-25T22:08:12.973Z,100.00
2018-08-25T22:10:42.095Z,100.00
2018-08-25T22:13:11.194Z,100.00
2018-08-25T22:15:40.280Z,100.00
2018-08-25T22:18:09.361Z,100.00
2018-08-25T22:20:38.609Z,100.00
2018-08-25T22:23:07.689Z,100.00
2018-08-25T22:25:36.801Z,100.00
2018-08-25T22:28:05.917Z,100.00
2018-08-25T22:30:35.045Z,100.00
2018-08-25T22:33:04.129Z,100.00
2018-08-25T22:35:33.233Z,100.00
2018-08-25T22:38:02.322Z,100.00
2018-08-25T22:40:31.423Z,100.00
2018-08-25T22:43:00.622Z,100.00
2018-08-25T22:45:29.929Z,100.00
2018-08-25T22:47:59.120Z,100.00
2018-08-25T22:50:28.229Z,100.00
2018-08-25T22:52:57.318Z,100.00
2018-08-25T22:55:26.409Z,100.00
2018-08-25T22:57:55.496Z,100.00
2018-08-25T23:00:26.420Z,100.00
2018-08-25T23:02:55.540Z,100.00
2018-08-25T23:05:25.005Z,100.00
2018-08-25T23:07:54.320Z,100.00
2018-08-25T23:10:23.460Z,100.00
2018-08-25T23:12:52.625Z,100.00
2018-08-25T23:15:21.726Z,100.00
2018-08-25T23:17:50.860Z,100.00
2018-08-25T23:20:20.022Z,100.00
2018-08-25T23:22:49.206Z,100.00
2018-08-25T23:25:18.316Z,100.00
2018-08-25T23:27:47.425Z,100.00
2018-08-25T23:30:16.644Z,100.00
2018-08-25T23:32:45.812Z,100.00
2018-08-25T23:35:14.904Z,100.00
2018-08-25T23:37:44.004Z,100.00
2018-08-25T23:40:13.187Z,100.00
2018-08-25T23:42:42.281Z,100.00
2018-08-25T23:45:11.383Z,100.00
2018-08-25T23:47:40.489Z,100.00
2018-08-25T23:50:09.595Z,100.00
2018-08-25T23:52:38.725Z,100.00
2018-08-25T23:55:08.443Z,100.00
2018-08-25T23:57:37.526Z,100.00
